Time;durP1;ratioP1;P1;durP2;ratioP2;P2;SDS_P1;SDS_P2;PMS_P1;PMS_P2;Temp;Humidity;BMP_temperature;BMP_pressure;BME280_temperature;BME280_humidity;BME280_pressure;Samples;Min_cycle;Max_cycle;Signal;HPM_P1;HPM_P2
2022/11/22 00:01:33;;;;;;;76.05;42.70;;;;;;;11.21;76.66;99667.00;4882401;29;20056;-77
2022/11/22 00:04:00;;;;;;;67.50;42.00;;;;;;;10.87;75.22;99649.38;4880648;29;20055;-79
2022/11/22 00:06:27;;;;;;;63.50;40.10;;;;;;;10.82;76.68;99659.59;4874204;29;20437;-81
2022/11/22 00:08:53;;;;;;;74.82;43.42;;;;;;;10.87;77.43;99675.06;4878663;29;20479;-80
2022/11/22 00:11:20;;;;;;;72.53;43.47;;;;;;;10.77;76.93;99622.09;4874761;29;20103;-77
2022/11/22 00:13:47;;;;;;;72.22;38.78;;;;;;;11.07;77.11;99643.75;4878833;29;20140;-81
2022/11/22 00:16:18;;;;;;;64.88;35.90;;;;;;;11.31;76.52;99640.28;4876186;29;20057;-79
2022/11/22 00:18:53;;;;;;;56.28;33.90;;;;;;;11.37;76.24;99644.13;4865452;29;20581;-77
2022/11/22 00:21:20;;;;;;;57.40;36.95;;;;;;;11.08;75.65;99579.00;4876907;29;20251;-80
2022/11/22 00:23:47;;;;;;;65.35;38.67;;;;;;;10.98;76.19;99594.28;4872448;29;20155;-78
2022/11/22 00:26:14;;;;;;;62.83;38.17;;;;;;;11.06;76.42;99615.53;4858625;29;20143;-79
2022/11/22 00:28:41;;;;;;;58.60;34.20;;;;;;;10.91;76.49;99605.53;4859856;29;20144;-79
2022/11/22 00:31:08;;;;;;;61.95;35.80;;;;;;;11.15;76.51;99611.91;4862186;29;20079;-80
2022/11/22 00:33:35;;;;;;;61.25;36.65;;;;;;;11.16;76.85;99588.81;4872865;29;20056;-82
2022/11/22 00:36:05;;;;;;;55.22;31.48;;;;;;;11.32;76.49;99592.31;4877042;29;20136;-81
2022/11/22 00:38:32;;;;;;;56.22;35.80;;;;;;;11.43;75.71;99601.78;4872119;29;20067;-80
2022/11/22 00:40:58;;;;;;;57.55;31.60;;;;;;;11.43;76.17;99577.03;4873448;29;20060;-79
2022/11/22 00:43:28;;;;;;;59.85;36.10;;;;;;;11.38;75.51;99542.16;4867688;29;20147;-81
2022/11/22 00:45:55;;;;;;;57.50;37.72;;;;;;;11.30;75.18;99564.25;4870054;29;20067;-79
2022/11/22 00:48:23;;;;;;;57.35;37.05;;;;;;;11.14;75.83;99559.78;4870743;29;20147;-80
2022/11/22 00:50:59;;;;;;;49.42;32.47;;;;;;;10.96;76.27;99556.44;4868115;29;20427;-82
2022/11/22 00:53:39;;;;;;;53.17;29.83;;;;;;;11.18;77.11;99561.09;4869385;29;20048;-84
2022/11/22 00:56:06;;;;;;;65.22;38.65;;;;;;;11.09;76.55;99551.44;4869896;29;20502;-81
2022/11/22 00:58:34;;;;;;;58.33;37.45;;;;;;;10.23;76.68;99430.56;4869136;29;20052;-80
2022/11/22 01:01:01;;;;;;;61.90;36.63;;;;;;;10.67;77.39;99523.19;4871886;29;20086;-82
2022/11/22 01:03:27;;;;;;;61.28;36.03;;;;;;;10.94;77.34;99551.28;4870658;29;20175;-80
2022/11/22 01:05:55;;;;;;;57.65;38.75;;;;;;;10.84;76.92;99546.13;4856457;29;20052;-81
2022/11/22 01:08:22;;;;;;;62.15;39.88;;;;;;;10.66;77.22;99534.81;4863153;29;20310;-81
2022/11/22 01:10:59;;;;;;;63.65;39.08;;;;;;;10.53;78.04;99511.38;4871083;29;20557;-81
2022/11/22 01:13:28;;;;;;;59.95;38.28;;;;;;;10.64;77.86;99510.25;4855536;29;20389;-80
2022/11/22 01:16:04;;;;;;;58.08;35.85;;;;;;;10.80;77.56;99526.22;4864336;29;20066;-81
2022/11/22 01:18:31;;;;;;;55.17;34.80;;;;;;;10.80;77.51;99509.44;4869400;29;20056;-81
2022/11/22 01:20:58;;;;;;;62.95;37.97;;;;;;;11.05;77.09;99491.72;4860937;29;20088;-81
2022/11/22 01:23:26;;;;;;;59.47;39.45;;;;;;;10.79;76.03;99442.25;4873424;29;20052;-81
2022/11/22 01:25:52;;;;;;;58.33;37.35;;;;;;;10.90;77.07;99468.47;4881219;29;20429;-80
2022/11/22 01:28:19;;;;;;;57.97;38.30;;;;;;;10.62;77.24;99430.78;4877186;29;20068;-82
2022/11/22 01:30:49;;;;;;;63.17;38.83;;;;;;;10.74;77.81;99441.91;4880924;29;20137;-82
2022/11/22 01:33:17;;;;;;;60.75;37.78;;;;;;;10.79;78.62;99460.81;4870919;29;20533;-80
2022/11/22 01:35:44;;;;;;;60.65;38.83;;;;;;;10.56;78.07;99444.75;4871964;29;20677;-82
2022/11/22 01:38:10;;;;;;;58.75;39.97;;;;;;;10.48;79.25;99452.66;4874132;29;20455;-82
2022/11/22 01:40:39;;;;;;;49.25;31.75;;;;;;;10.65;78.86;99427.78;4871663;29;20052;-81
2022/11/22 01:43:16;;;;;;;60.83;36.72;;;;;;;10.77;78.03;99430.97;4869476;29;20052;-79
2022/11/22 01:45:45;;;;;;;51.78;32.40;;;;;;;11.06;78.06;99398.56;4852225;29;20323;-82
2022/11/22 01:48:40;;;;;;;59.90;35.85;;;;;;;11.33;76.88;99415.97;4869858;29;20574;-81
2022/11/22 01:51:23;;;;;;;51.78;34.90;;;;;;;11.56;75.35;99404.59;4852341;29;20502;-81
2022/11/22 01:53:53;;;;;;;54.45;33.33;;;;;;;11.63;74.65;99383.47;4874574;29;20120;-82
2022/11/22 01:56:21;;;;;;;43.40;27.75;;;;;;;11.59;74.25;99360.88;4876851;29;20198;-77
2022/11/22 01:58:55;;;;;;;47.15;29.85;;;;;;;11.71;74.46;99370.94;4872865;29;20140;-81
2022/11/22 02:01:26;;;;;;;44.72;31.15;;;;;;;11.92;74.02;99345.63;4862920;29;20491;-81
2022/11/22 02:03:55;;;;;;;53.63;36.42;;;;;;;11.40;73.18;99303.66;4874171;29;20056;-78
2022/11/22 02:06:27;;;;;;;49.10;29.83;;;;;;;11.70;74.71;99350.69;4854066;29;20068;-83
2022/11/22 02:09:03;;;;;;;49.00;29.90;;;;;;;11.50;74.26;99314.91;4856171;29;20589;-79
2022/11/22 02:11:37;;;;;;;48.15;32.45;;;;;;;11.36;74.53;99297.88;4869333;29;20124;-81
2022/11/22 02:14:05;;;;;;;43.35;28.88;;;;;;;11.41;74.30;99294.66;4856951;29;20045;-80
2022/11/22 02:16:34;;;;;;;53.47;32.67;;;;;;;11.55;74.26;99324.03;4853941;29;20305;-81
2022/11/22 02:19:05;;;;;;;42.05;29.63;;;;;;;11.69;74.87;99319.78;4850869;29;20682;-83
2022/11/22 02:21:32;;;;;;;53.55;32.90;;;;;;;11.26;73.28;99223.72;4856740;29;20080;-81
2022/11/22 02:24:13;;;;;;;47.17;29.75;;;;;;;11.53;74.51;99277.38;4868809;29;20048;-81
2022/11/22 02:26:43;;;;;;;42.13;28.25;;;;;;;11.48;74.01;99247.81;4867650;29;20236;-82
2022/11/22 02:29:11;;;;;;;50.80;32.53;;;;;;;11.64;73.62;99268.97;4864824;29;20048;-80
2022/11/22 02:31:44;;;;;;;40.00;26.30;;;;;;;11.84;74.62;99263.19;4864993;29;20114;-84
2022/11/22 02:34:14;;;;;;;40.63;27.45;;;;;;;12.22;73.49;99244.66;4881882;29;20060;-81
2022/11/22 02:36:49;;;;;;;38.70;23.90;;;;;;;12.75;72.03;99251.59;4868170;29;20048;-80
2022/11/22 02:39:19;;;;;;;41.38;28.50;;;;;;;12.52;71.42;99230.34;4869758;29;20135;-80
2022/11/22 02:41:50;;;;;;;47.28;30.17;;;;;;;12.07;72.07;99178.94;4874159;29;20223;-81
2022/11/22 02:44:19;;;;;;;;;;;;;;;11.95;71.93;99212.28;4873203;29;20482;-81
2022/11/22 02:46:49;;;;;;;40.40;27.33;;;;;;;11.82;73.25;99190.75;4868316;29;19974;-82
2022/11/22 02:49:21;;;;;;;43.28;29.67;;;;;;;11.58;73.92;99183.78;4871669;29;20052;-80
2022/11/22 02:51:48;;;;;;;46.15;28.08;;;;;;;11.38;74.49;99168.31;4903575;29;20068;-81
2022/11/22 02:54:15;;;;;;;46.65;30.10;;;;;;;11.21;74.82;99164.94;4870862;29;20063;-80
2022/11/22 02:56:42;;;;;;;45.38;29.13;;;;;;;10.80;76.16;99109.44;4863143;29;20083;-80
2022/11/22 02:59:09;;;;;;;43.38;29.80;;;;;;;11.16;76.90;99148.69;4851355;29;20052;-81
2022/11/22 03:01:36;;;;;;;46.08;29.60;;;;;;;10.93;77.39;99132.75;4866496;29;20167;-81
2022/11/22 03:04:06;;;;;;;48.42;31.15;;;;;;;10.79;77.05;99118.38;4854144;29;20127;-81
2022/11/22 03:06:34;;;;;;;36.63;24.58;;;;;;;10.76;77.78;99100.16;4853422;29;20594;-80
2022/11/22 03:09:01;;;;;;;40.22;25.88;;;;;;;10.89;78.14;99095.09;4852870;29;20447;-82
2022/11/22 03:11:28;;;;;;;46.08;29.70;;;;;;;10.76;78.30;99063.00;4853510;29;20063;-81
2022/11/22 03:13:55;;;;;;;37.75;25.48;;;;;;;11.06;77.52;99074.56;4850397;29;20253;-80
2022/11/22 03:16:21;;;;;;;45.97;28.65;;;;;;;11.48;76.57;99075.06;4865374;29;20530;-82
2022/11/22 03:18:48;;;;;;;47.47;28.75;;;;;;;11.23;76.75;99043.41;4853354;29;20555;-83
2022/11/22 03:21:15;;;;;;;47.97;28.88;;;;;;;10.96;77.74;99043.94;4844917;29;20127;-83
2022/11/22 03:23:42;;;;;;;43.45;28.17;;;;;;;11.32;76.96;99052.13;4850203;29;20048;-82
2022/11/22 03:26:10;;;;;;;52.72;29.42;;;;;;;11.13;78.10;99051.59;4852788;29;20431;-83
2022/11/22 03:28:37;;;;;;;37.22;26.55;;;;;;;11.02;78.29;99024.63;4851361;29;20066;-81
2022/11/22 03:31:06;;;;;;;36.72;26.10;;;;;;;11.53;76.98;99032.88;4852221;29;20313;-82
2022/11/22 03:33:34;;;;;;;32.08;22.48;;;;;;;11.62;77.16;99013.16;4851029;29;20841;-83
2022/11/22 03:36:03;;;;;;;37.22;25.15;;;;;;;11.72;76.08;99016.38;4851289;29;20495;-81
2022/11/22 03:38:30;;;;;;;39.47;25.75;;;;;;;11.43;77.14;99005.69;4852382;29;20063;-83
2022/11/22 03:40:58;;;;;;;34.03;24.33;;;;;;;11.05;78.28;98987.13;4845335;29;20074;-82
2022/11/22 03:43:27;;;;;;;36.47;25.92;;;;;;;11.03;79.62;99015.69;4858178;29;20079;-80
2022/11/22 03:45:56;;;;;;;40.38;26.80;;;;;;;10.86;80.23;98983.13;4852261;29;20300;-82
2022/11/22 03:48:26;;;;;;;42.25;25.98;;;;;;;10.67;80.42;98947.25;4849635;29;20477;-81
2022/11/22 03:50:53;;;;;;;35.38;26.17;;;;;;;10.85;80.95;98982.31;4852773;29;20064;-81
2022/11/22 03:53:19;;;;;;;40.45;26.08;;;;;;;10.73;80.68;98969.59;4850724;29;20056;-82
2022/11/22 03:55:46;;;;;;;39.83;26.88;;;;;;;10.55;81.11;98943.38;4848540;29;20108;-83
2022/11/22 03:58:13;;;;;;;34.88;24.58;;;;;;;10.65;82.18;98973.16;4864949;29;20085;-81
2022/11/22 04:00:39;;;;;;;37.08;24.27;;;;;;;10.72;82.36;98975.94;4863933;29;20055;-82
2022/11/22 04:03:09;;;;;;;36.60;24.75;;;;;;;10.60;83.01;98962.25;4866034;29;20065;-82
2022/11/22 04:05:36;;;;;;;35.35;24.48;;;;;;;10.61;82.16;98942.69;4850433;29;20493;-82
2022/11/22 04:08:02;;;;;;;37.00;24.33;;;;;;;10.63;82.29;98941.50;4868661;29;20482;-83
2022/11/22 04:10:29;;;;;;;38.88;25.00;;;;;;;10.81;82.94;98965.06;4869947;29;20529;-83
2022/11/22 04:12:57;;;;;;;33.70;21.90;;;;;;;10.80;82.55;98960.78;4871412;29;20496;-82
2022/11/22 04:15:26;;;;;;;23.77;17.17;;;;;;;11.17;81.82;98950.34;4865706;29;20049;-84
2022/11/22 04:17:53;;;;;;;28.48;20.45;;;;;;;11.42;80.62;98930.47;4872513;29;20686;-81
2022/11/22 04:23:16;;;;;;;26.73;18.23;;;;;;;11.95;78.34;98920.56;4852828;29;20182;-82
2022/11/22 04:25:45;;;;;;;;;;;;;;;11.96;78.75;98943.50;4855234;29;20139;-83
2022/11/22 04:28:17;;;;;;;32.50;20.70;;;;;;;11.74;79.45;98929.28;4869711;29;20042;-80
2022/11/22 04:33:30;;;;;;;23.00;16.98;;;;;;;11.98;78.38;98927.34;4859319;29;20452;-82
2022/11/22 04:35:56;;;;;;;23.98;17.65;;;;;;;11.81;78.02;98876.19;4864456;29;20415;-83
2022/11/22 04:38:24;;;;;;;20.65;14.35;;;;;;;12.04;78.18;98926.63;4867661;29;20132;-82
2022/11/22 04:40:50;;;;;;;23.85;17.05;;;;;;;11.82;76.43;98831.81;4867988;29;20449;-83
2022/11/22 04:46:11;;;;;;;22.42;13.60;;;;;;;12.06;77.88;98873.22;4853982;29;20053;-82
2022/11/22 04:48:38;;;;;;;17.92;13.55;;;;;;;11.81;77.17;98811.56;4848927;29;20312;-81
2022/11/22 04:53:55;;;;;;;20.50;13.60;;;;;;;12.09;78.33;98872.88;4848245;29;20157;-84
2022/11/22 04:56:22;;;;;;;25.67;13.73;;;;;;;11.40;76.94;98705.84;4859171;29;20503;-82
2022/11/22 04:58:51;;;;;;;15.82;11.48;;;;;;;12.13;77.76;98840.34;4854091;29;20625;-82
2022/11/22 05:01:21;;;;;;;20.05;11.73;;;;;;;12.31;77.51;98852.44;4866929;29;20315;-84
2022/11/22 05:03:48;;;;;;;23.95;11.75;;;;;;;12.52;76.31;98836.41;4870355;29;20727;-82
2022/11/22 05:06:15;;;;;;;18.75;11.50;;;;;;;12.45;76.77;98840.88;4865247;29;20164;-78
2022/11/22 05:08:46;;;;;;;21.88;10.93;;;;;;;12.69;76.04;98836.16;4866243;29;20064;-84
2022/11/22 05:11:13;;;;;;;16.33;9.50;;;;;;;12.49;77.25;98826.16;4870353;29;20354;-82
2022/11/22 05:13:46;;;;;;;12.57;9.02;;;;;;;12.66;75.79;98812.59;4851334;29;20308;-84
2022/11/22 05:16:14;;;;;;;15.00;8.37;;;;;;;12.28;76.41;98754.34;4869282;29;20056;-83
2022/11/22 05:18:42;;;;;;;17.00;8.35;;;;;;;12.59;76.28;98809.84;4850000;29;20055;-82
2022/11/22 05:21:12;;;;;;;16.20;7.80;;;;;;;12.68;75.82;98802.56;4857529;29;20048;-82
2022/11/22 05:23:55;;;;;;;10.82;7.90;;;;;;;12.68;74.89;98759.97;4869801;29;20060;-83
2022/11/22 05:26:31;;;;;;;13.25;6.07;;;;;;;12.99;74.57;98788.84;4863056;29;20053;-80
2022/11/22 05:29:06;;;;;;;8.90;5.97;;;;;;;12.21;75.54;98684.28;4870235;29;20052;-81
2022/11/22 05:31:36;;;;;;;10.73;5.90;;;;;;;12.68;75.69;98770.63;4866727;29;20594;-81
2022/11/22 05:34:04;;;;;;;14.27;5.68;;;;;;;12.41;75.10;98701.22;4850652;29;20056;-79
2022/11/22 05:36:33;;;;;;;7.85;4.60;;;;;;;12.76;75.54;98771.28;4852501;29;20056;-84
2022/11/22 05:39:01;;;;;;;10.40;6.03;;;;;;;12.44;75.29;98695.53;4864213;29;20068;-80
2022/11/22 05:41:27;;;;;;;10.75;5.03;;;;;;;12.90;74.57;98758.88;4851632;29;20462;-86
2022/11/22 05:43:55;;;;;;;9.52;5.50;;;;;;;12.36;74.75;98663.75;4846285;29;20147;-83
2022/11/22 05:46:28;;;;;;;8.70;3.80;;;;;;;12.66;75.25;98714.09;4864170;29;20495;-83
2022/11/22 05:48:56;;;;;;;9.32;4.40;;;;;;;12.53;75.78;98720.16;4869553;29;20071;-81
2022/11/22 05:51:25;;;;;;;11.90;4.75;;;;;;;12.17;75.79;98666.06;4857557;29;20570;-82
2022/11/22 05:54:00;;;;;;;12.25;4.82;;;;;;;12.53;75.96;98694.34;4846314;29;20064;-84
2022/11/22 05:56:30;;;;;;;7.88;4.18;;;;;;;12.66;76.22;98719.41;4843471;29;20168;-85
2022/11/22 05:58:56;;;;;;;5.50;4.18;;;;;;;12.87;74.92;98705.19;4876303;29;20067;-83
2022/11/22 06:01:23;;;;;;;7.50;4.40;;;;;;;12.61;74.51;98656.91;4875381;29;20420;-82
2022/11/22 06:03:50;;;;;;;13.13;4.55;;;;;;;12.75;75.58;98704.94;4873083;29;20212;-84
2022/11/22 06:06:17;;;;;;;8.50;4.50;;;;;;;12.77;75.30;98710.88;4877076;29;20056;-83
2022/11/22 06:08:46;;;;;;;9.38;4.18;;;;;;;12.52;76.42;98700.69;4875655;29;20052;-83
2022/11/22 06:11:16;;;;;;;11.93;5.05;;;;;;;12.35;77.29;98696.69;4821100;29;20173;-83
2022/11/22 06:13:45;;;;;;;7.78;4.57;;;;;;;11.84;77.92;98620.56;4840387;29;20583;-79
2022/11/22 06:16:13;;;;;;;6.60;4.55;;;;;;;12.01;78.69;98674.31;4895747;29;20060;-82
2022/11/22 06:18:39;;;;;;;6.97;4.20;;;;;;;11.90;78.93;98664.22;4874239;29;20156;-81
2022/11/22 06:21:10;;;;;;;7.95;4.13;;;;;;;11.93;79.31;98669.16;4896234;29;20083;-82
2022/11/22 06:38:26;;;;;;;16.25;4.63;;;;;;;11.77;80.87;98639.16;4988557;27;2499789;-81
2022/11/22 06:40:59;;;;;;;11.88;4.53;;;;;;;11.44;81.19;98598.19;5050240;28;20880;-82
2022/11/22 06:43:28;;;;;;;9.05;4.30;;;;;;;11.58;82.15;98654.91;5053382;28;20051;-83
2022/11/22 06:45:57;;;;;;;12.05;5.72;;;;;;;11.45;82.08;98652.94;5051093;28;20132;-83
2022/11/22 06:48:31;;;;;;;13.02;5.10;;;;;;;11.07;82.71;98594.78;5049835;28;20050;-83
2022/11/22 06:51:02;;;;;;;11.45;5.03;;;;;;;11.36;83.59;98654.09;5049386;28;20078;-83
2022/11/22 06:53:30;;;;;;;17.27;6.03;;;;;;;11.19;84.23;98627.78;5051786;28;20047;-85
2022/11/22 06:56:19;;;;;;;13.70;7.80;;;;;;;11.51;83.28;98662.84;5058904;28;20062;-83
2022/11/22 06:58:47;;;;;;;13.50;10.43;;;;;;;10.78;81.67;98534.63;5053245;28;20052;-81
2022/11/22 07:01:21;;;;;;;14.93;8.20;;;;;;;11.24;81.88;98625.38;5046736;28;20048;-81
2022/11/22 07:03:48;;;;;;;17.02;9.82;;;;;;;11.31;82.03;98615.66;5045757;28;20055;-82
2022/11/22 07:06:19;;;;;;;17.25;12.13;;;;;;;11.08;81.85;98604.38;5046089;28;20160;-82
2022/11/22 07:08:48;;;;;;;19.33;13.07;;;;;;;11.14;81.67;98611.59;5047169;28;20043;-82
2022/11/22 07:11:19;;;;;;;16.75;12.43;;;;;;;10.73;82.69;98580.31;5045696;28;20056;-81
2022/11/22 07:13:49;;;;;;;14.13;11.18;;;;;;;10.59;83.34;98600.53;4944924;28;20058;-81
2022/11/22 07:16:18;;;;;;;16.60;11.55;;;;;;;10.17;83.49;98553.44;4971507;28;20044;-81
2022/11/22 07:18:46;;;;;;;19.27;12.52;;;;;;;9.76;84.37;98477.88;4977226;28;20048;-82
2022/11/22 07:21:16;;;;;;;19.85;12.38;;;;;;;10.34;83.24;98578.81;4981808;28;20488;-82
2022/11/22 07:23:47;;;;;;;19.65;12.48;;;;;;;10.43;84.01;98598.91;4994181;28;20182;-81
2022/11/22 07:26:16;;;;;;;16.88;12.88;;;;;;;10.25;85.09;98614.34;4989231;28;21011;-82
2022/11/22 07:28:44;;;;;;;23.23;14.30;;;;;;;9.81;85.14;98527.69;4960341;28;20050;-81
2022/11/22 07:31:12;;;;;;;16.90;12.43;;;;;;;10.16;84.26;98581.78;4959178;28;20485;-81
2022/11/22 07:33:41;;;;;;;17.75;12.73;;;;;;;10.19;84.20;98583.25;4967494;28;20053;-83
2022/11/22 07:36:16;;;;;;;21.55;11.75;;;;;;;10.15;84.65;98582.00;4970415;28;20049;-82
2022/11/22 07:38:44;;;;;;;15.93;12.30;;;;;;;9.92;85.07;98540.47;4986378;28;20057;-82
2022/11/22 07:41:12;;;;;;;19.52;11.80;;;;;;;10.13;83.93;98546.88;5008098;28;20605;-82
2022/11/22 07:43:38;;;;;;;16.17;10.82;;;;;;;9.60;84.18;98481.53;5008054;28;20056;-80
2022/11/22 07:46:34;;;;;;;16.98;11.75;;;;;;;10.00;84.72;98561.59;5014437;28;20769;-83
2022/11/22 07:49:02;;;;;;;20.23;13.85;;;;;;;10.12;85.25;98566.44;5012950;28;20500;-85
2022/11/22 07:51:29;;;;;;;19.05;13.07;;;;;;;9.87;84.90;98531.44;5010656;28;20060;-82
2022/11/22 07:53:56;;;;;;;24.20;13.80;;;;;;;9.95;84.73;98532.16;5015132;28;20455;-84
2022/11/22 07:56:23;;;;;;;20.13;13.68;;;;;;;9.84;84.65;98527.31;5016741;28;20629;-84
2022/11/22 07:58:59;;;;;;;17.10;13.00;;;;;;;9.81;85.03;98517.09;5015097;28;20052;-84
2022/11/22 08:01:25;;;;;;;18.88;12.80;;;;;;;10.01;85.49;98549.97;5012871;28;20235;-84
2022/11/22 08:03:52;;;;;;;17.92;12.35;;;;;;;9.99;85.64;98546.69;5012586;28;20372;-83
2022/11/22 08:06:19;;;;;;;20.27;13.30;;;;;;;9.98;85.85;98545.06;5014368;28;20041;-85
2022/11/22 08:08:46;;;;;;;14.30;10.60;;;;;;;9.47;86.47;98462.81;5013526;28;20056;-83
2022/11/22 08:11:13;;;;;;;21.58;13.55;;;;;;;9.80;86.69;98520.72;5018960;28;20049;-83
2022/11/22 08:13:43;;;;;;;17.65;13.30;;;;;;;9.08;86.19;98397.66;5026790;28;20056;-83
2022/11/22 08:16:16;;;;;;;20.10;14.20;;;;;;;10.08;86.21;98539.47;5015766;28;20277;-83
2022/11/22 08:18:48;;;;;;;23.55;14.32;;;;;;;10.08;85.57;98538.66;5001342;28;20049;-83
2022/11/22 08:21:22;;;;;;;17.13;12.82;;;;;;;10.06;85.88;98544.13;5003294;28;20099;-82
2022/11/22 08:23:56;;;;;;;17.67;11.27;;;;;;;9.50;85.83;98454.47;5004651;28;20155;-83
2022/11/22 08:26:23;;;;;;;12.88;8.48;;;;;;;9.86;86.62;98508.59;4986463;28;20057;-81
2022/11/22 08:28:50;;;;;;;12.52;9.13;;;;;;;9.62;87.42;98466.28;5005395;28;20641;-83
2022/11/22 08:31:21;;;;;;;8.73;7.30;;;;;;;10.04;86.92;98517.78;5009742;28;20171;-85
2022/11/22 08:33:52;;;;;;;9.55;7.47;;;;;;;9.56;86.08;98444.97;5014800;28;20174;-83
2022/11/22 08:36:20;;;;;;;9.70;7.35;;;;;;;10.22;85.88;98540.47;5012415;28;20072;-81
2022/11/22 08:38:47;;;;;;;8.93;6.45;;;;;;;10.23;86.00;98547.41;5006407;28;20355;-82
2022/11/22 08:41:14;;;;;;;9.77;6.10;;;;;;;10.15;85.57;98547.53;5010153;28;20096;-82
2022/11/22 08:43:41;;;;;;;8.50;5.97;;;;;;;9.99;86.65;98528.13;5007766;28;20063;-83
2022/11/22 08:46:08;;;;;;;7.50;5.47;;;;;;;9.83;86.62;98493.88;5031103;28;20049;-83
2022/11/22 08:48:36;;;;;;;9.00;6.68;;;;;;;9.90;86.24;98486.81;5004164;28;20525;-83
2022/11/22 08:51:06;;;;;;;9.23;6.35;;;;;;;10.19;86.07;98532.88;5009151;28;20130;-83
2022/11/22 08:53:35;;;;;;;8.25;5.32;;;;;;;9.97;85.74;98511.59;4940757;28;20287;-83
2022/11/22 08:56:03;;;;;;;9.18;6.45;;;;;;;9.99;86.12;98522.81;4925970;28;20574;-85
2022/11/22 08:58:32;;;;;;;9.85;6.70;;;;;;;9.98;86.90;98523.84;4933075;28;20972;-84
2022/11/22 09:01:06;;;;;;;8.68;6.68;;;;;;;10.02;86.90;98533.09;4994100;28;20056;-83
2022/11/22 09:03:39;;;;;;;8.23;6.70;;;;;;;9.85;86.55;98502.44;4966360;28;20219;-81
2022/11/22 09:06:11;;;;;;;9.60;5.68;;;;;;;9.27;86.91;98414.84;4947732;28;20137;-79
2022/11/22 09:09:02;;;;;;;6.78;4.40;;;;;;;10.00;86.55;98529.78;5007709;28;20380;-82
2022/11/22 09:11:51;;;;;;;9.80;4.90;;;;;;;9.97;87.16;98524.03;5010500;28;20124;-86
2022/11/22 09:14:18;;;;;;;6.68;4.57;;;;;;;9.84;87.33;98493.69;5011091;28;20430;-83
2022/11/22 09:16:45;;;;;;;9.85;3.92;;;;;;;10.04;87.72;98507.19;5012595;28;20115;-82
2022/11/22 09:19:12;;;;;;;8.57;4.63;;;;;;;10.10;87.54;98495.03;5012032;28;20570;-82
2022/11/22 09:21:42;;;;;;;8.13;3.03;;;;;;;9.79;87.67;98419.22;5011893;28;20051;-82
2022/11/22 09:24:09;;;;;;;5.38;4.18;;;;;;;10.36;87.07;98480.47;5014606;28;20056;-84
2022/11/22 09:26:40;;;;;;;4.50;3.65;;;;;;;10.50;85.61;98492.06;5009157;28;20159;-84
2022/11/22 09:29:07;;;;;;;7.90;3.65;;;;;;;10.40;84.53;98453.41;5010777;28;20076;-81
2022/11/22 09:31:34;;;;;;;13.02;4.15;;;;;;;10.94;83.11;98491.06;5007986;28;20219;-81
2022/11/22 09:34:04;;;;;;;4.30;3.72;;;;;;;11.08;81.36;98498.16;5002581;28;20091;-84
2022/11/22 09:36:31;;;;;;;8.60;5.45;;;;;;;10.65;82.32;98491.00;5003517;28;20093;-81
2022/11/22 09:38:58;;;;;;;9.25;5.85;;;;;;;10.17;83.74;98429.66;5006923;28;20056;-80
2022/11/22 09:41:43;;;;;;;7.68;5.75;;;;;;;9.72;84.62;98396.28;4997948;28;20551;-81
2022/11/22 09:44:41;;;;;;;11.73;7.18;;;;;;;10.11;85.28;98491.38;5008823;28;20049;-81
2022/11/22 09:47:45;;;;;;;8.63;6.35;;;;;;;9.96;86.34;98483.44;5002911;28;20187;-83
2022/11/22 09:50:29;;;;;;;9.23;5.68;;;;;;;9.95;86.72;98471.22;5006595;28;20049;-80
2022/11/22 09:53:02;;;;;;;5.90;4.35;;;;;;;10.10;87.04;98478.28;5002436;28;20655;-81
2022/11/22 09:55:48;;;;;;;6.13;4.45;;;;;;;10.06;87.31;98473.38;5005413;28;20053;-82
2022/11/22 09:58:39;;;;;;;7.90;5.20;;;;;;;10.10;86.98;98479.13;4984974;28;20236;-79
2022/11/22 10:01:18;;;;;;;4.67;3.90;;;;;;;10.09;87.20;98466.06;4986278;28;20056;-82
2022/11/22 10:03:45;;;;;;;9.35;4.55;;;;;;;9.98;87.64;98459.41;4992433;28;20304;-83
2022/11/22 10:06:31;;;;;;;8.70;4.45;;;;;;;9.85;88.23;98444.16;4986658;28;20053;-83
2022/11/22 10:09:25;;;;;;;5.85;4.07;;;;;;;9.79;89.18;98460.78;4987913;28;20706;-82
2022/11/22 10:12:21;;;;;;;4.88;3.70;;;;;;;9.80;90.20;98457.13;5006413;28;20076;-83
2022/11/22 10:15:03;;;;;;;5.43;3.88;;;;;;;9.71;90.27;98448.47;4988386;28;20057;-84
2022/11/22 10:17:58;;;;;;;5.07;3.60;;;;;;;9.87;89.33;98458.03;4988203;28;20395;-82
2022/11/22 10:20:28;;;;;;;13.23;4.50;;;;;;;9.84;90.18;98448.63;4991187;28;20138;-86
2022/11/22 10:22:56;;;;;;;4.70;3.30;;;;;;;9.87;89.74;98447.44;4996022;28;20672;-81
2022/11/22 10:25:38;;;;;;;5.90;3.60;;;;;;;9.84;89.56;98445.16;5001229;28;21045;-84
2022/11/22 10:28:32;;;;;;;4.35;3.60;;;;;;;9.88;90.31;98448.25;4988571;28;20139;-85
2022/11/22 10:31:10;;;;;;;4.53;3.22;;;;;;;9.68;89.77;98400.31;4990625;28;20324;-83
2022/11/22 10:34:02;;;;;;;7.75;3.70;;;;;;;9.98;89.93;98446.97;4990192;28;20057;-83
2022/11/22 10:36:58;;;;;;;5.15;3.78;;;;;;;10.03;88.99;98441.94;5007676;28;20061;-81
2022/11/22 10:39:51;;;;;;;5.30;4.40;;;;;;;9.72;89.16;98407.72;5009773;28;20056;-81
2022/11/22 10:43:03;;;;;;;6.13;4.30;;;;;;;9.89;88.61;98440.13;5005501;28;20053;-80
2022/11/22 10:46:11;;;;;;;13.63;4.55;;;;;;;9.70;88.90;98408.91;5004862;28;20040;-83
2022/11/22 10:48:46;;;;;;;5.00;4.40;;;;;;;9.83;89.16;98438.22;5008706;28;20045;-83
2022/11/22 10:51:48;;;;;;;6.18;3.80;;;;;;;9.70;90.11;98408.91;5004580;28;20067;-82
2022/11/22 10:54:31;;;;;;;7.97;3.70;;;;;;;9.92;88.80;98433.63;4983523;28;20060;-80
2022/11/22 10:57:17;;;;;;;4.82;4.00;;;;;;;9.97;88.36;98449.81;4953235;28;20440;-82
2022/11/22 11:00:05;;;;;;;6.25;3.72;;;;;;;9.66;89.16;98411.09;4987123;28;20076;-82
2022/11/22 11:02:56;;;;;;;4.22;3.83;;;;;;;9.80;89.26;98457.13;4988056;28;20053;-81
2022/11/22 11:05:41;;;;;;;5.60;3.45;;;;;;;9.35;89.07;98379.53;5012050;28;20053;-81
2022/11/22 11:08:41;;;;;;;7.05;3.35;;;;;;;9.81;89.22;98464.09;4998416;28;20052;-79
2022/11/22 11:11:29;;;;;;;5.70;3.80;;;;;;;9.71;88.77;98442.31;5005981;28;20822;-79
2022/11/22 11:14:03;;;;;;;5.60;3.42;;;;;;;9.73;88.63;98451.72;5011686;28;20079;-79
2022/11/22 11:16:34;;;;;;;6.22;3.50;;;;;;;9.53;88.85;98422.31;5008557;28;20326;-78
2022/11/22 11:19:03;;;;;;;5.93;4.00;;;;;;;9.71;89.25;98442.31;5010376;28;20507;-81
2022/11/22 11:21:30;;;;;;;6.30;4.05;;;;;;;9.67;88.85;98425.16;5012253;28;20675;-78
2022/11/22 11:24:20;;;;;;;4.53;3.80;;;;;;;9.66;88.64;98444.69;5021168;28;20075;-79
2022/11/22 11:26:55;;;;;;;8.43;3.65;;;;;;;9.67;89.06;98457.78;5014343;28;20363;-79
2022/11/22 11:29:54;;;;;;;6.10;3.25;;;;;;;9.65;89.21;98437.78;5012794;28;20156;-78
2022/11/22 11:32:22;;;;;;;3.92;2.90;;;;;;;9.41;88.23;98415.84;5006244;28;20045;-79
2022/11/22 11:35:03;;;;;;;7.15;2.75;;;;;;;9.52;89.54;98460.44;5017850;28;20232;-82
2022/11/22 11:37:38;;;;;;;7.72;2.60;;;;;;;8.92;89.10;98379.28;5025452;28;20056;-81
2022/11/22 11:40:25;;;;;;;7.13;3.28;;;;;;;9.41;90.16;98468.81;4955331;28;20072;-83
2022/11/22 11:43:18;;;;;;;6.95;2.85;;;;;;;9.29;89.79;98449.06;4993800;28;20173;-84
2022/11/22 11:45:45;;;;;;;3.92;2.33;;;;;;;9.34;90.02;98466.06;5006670;28;20165;-82
2022/11/22 11:48:27;;;;;;;7.78;2.70;;;;;;;9.37;89.13;98459.59;5013813;28;20057;-82
2022/11/22 11:51:12;;;;;;;9.55;2.95;;;;;;;9.30;89.50;98478.03;5013004;28;20077;-83
2022/11/22 11:53:41;;;;;;;7.38;3.00;;;;;;;9.02;90.84;98453.13;5004246;28;20088;-83
2022/11/22 11:56:29;;;;;;;5.00;2.40;;;;;;;9.26;91.19;98492.63;4957815;28;20057;-77
2022/11/22 11:59:04;;;;;;;6.32;2.47;;;;;;;9.29;90.58;98470.25;4993442;28;20198;-82
2022/11/22 12:01:35;;;;;;;8.73;2.45;;;;;;;9.20;90.19;98457.09;5024416;28;20075;-81
2022/11/22 12:04:06;;;;;;;2.95;2.17;;;;;;;9.13;89.72;98448.25;5012491;28;20154;-80
2022/11/22 12:06:33;;;;;;;4.82;2.33;;;;;;;9.36;89.69;98489.72;4951208;28;20404;-83
2022/11/22 12:09:07;;;;;;;5.38;2.40;;;;;;;9.18;88.59;98453.00;4996174;28;20057;-80
2022/11/22 12:11:45;;;;;;;4.63;2.58;;;;;;;9.16;88.56;98463.75;5011803;28;20134;-82
2022/11/22 12:14:15;;;;;;;4.25;3.05;;;;;;;9.30;88.30;98507.16;5001395;28;20278;-80
2022/11/22 12:16:49;;;;;;;9.00;3.17;;;;;;;8.68;88.96;98415.53;5008723;28;20510;-81